Phoenix, AZ

11:35 PM MST on September 30, 2016 (GMT -0700)
Phoenix Sky Harbor International | | Change Station

Elev 1106 ft 33.43 °N, 112.00 °W | Updated 44 minutes ago

Partly Cloudy
Partly Cloudy
83 °F
Feels Like 82 °F
N
6
Wind Variable Wind from East

Today
High -- | Low -- °F
--% Chance of Precip.
Yesterday
High -- | Low -- °F
Precip. -- in
Pressure 29.89 in
Visibility 10.0 miles
Clouds Few 13000 ft
Heat Index 82 °F
Dew Point 57 °F
Humidity 41%
Rainfall 0.00 in
Snow Depth Not available.
6:22 AM 6:13 PM
New Moon, 0% visible
METAR KPHX 010551Z 10005KT 10SM FEW130 28/14 A2994 RMK AO2 SLP121 T02830139 10344 20283 51011 $
Pressure 29.89 in
Visibility 10.0 miles
Clouds Few 13000 ft
Heat Index 82 °F
Dew Point 57 °F
Humidity 41%
Rainfall 0.00 in
Snow Depth Not available.
6:22 AM 6:13 PM
New Moon, 0% visible
METAR KPHX 010551Z 10005KT 10SM FEW130 28/14 A2994 RMK AO2 SLP121 T02830139 10344 20283 51011 $

10-Day Weather Forecast

Almanac

Astronomy

Sep. 30, 2016 Rise Set
Actual Time
Civil Twilight
Nautical Twilight
Astronomical Twilight
Moon
Length of Visible Light
Length of Day
Tomorrow will be .
, % of the Moon is Illuminated

Today's Extremes

State Highs State Lows

Community

WunderPhotos

Upload Photos

1,942,898 photos uploaded!

WunderBlog® & News

Nearby

Air Quality

  Air Quality AQ Index Pollutant
Not available.

Snow Depth

Station Depth Elevation

Earthquake Activity

City Distance Mag. Time & Date
Minimum magnitude displayed is 2.5.

Coastal Water Temperatures

Place Temperature

Stations

Nearby Weather Stations

Station Location Temp. Windchill Dew Point Humidity Wind Precip. Elev Updated Type
                   

Watches & Warnings

There are currently no watches in effect.